»·PEaware :: N290TW KWVI-KMRY

N290TW :: KWVI-KMRY

FLIGHT INFORMATION

Flight Status: Arrived
Operator: Privately registered:
United States
More flights under this callsign
Pilot: Chris B. (23589)
Aircraft: CESSNA 172 SKYHAWK
(C172)
More flights by this aircraft type
Origin: KWVI Watsonville Mun
United States
Destination: KMRY Monterey Peninsula
United States
More flights between these airports :: More routes between these airports
Route: SNS
File this flight plan on PilotEdge
Remarks: Weather set to minimums.
Altitude:
(Current/Filed)
4,000ft
Speed:
(Current/Filed)
110kts
Departed: 08-Jun-20 05:31 PM
Arrived: 08-Jun-20 05:56 PM
Distance/Time
Traveled:
21nm/0:24
Distance/Time
To Go:
Arrived

Flight Plot

Page will automatically refresh every two minutes.

Flight plan parsing failed; only flown route is shown


Map Options




Map Legend


Flown Route
Filed Route
Departure Airport
Arrival Airport
Navaid (VOR, NDB)
Fix

Horizontal Profiles

Position Reports

Time Latitude Longitude Heading Altitude Ground
Speed
08-Jun-20 16:58 36.935536 -121.788879 205 147ft 0kts
08-Jun-20 16:59 36.935535 -121.788880 205 147ft 0kts
08-Jun-20 17:00 36.935535 -121.788880 205 147ft 0kts
08-Jun-20 17:01 36.935535 -121.788880 205 147ft 0kts
08-Jun-20 17:02 36.935535 -121.788880 205 147ft 0kts
08-Jun-20 17:03 36.935535 -121.788880 205 147ft 0kts
08-Jun-20 17:06 36.935538 -121.788879 205 147ft 0kts
08-Jun-20 17:07 36.935538 -121.788879 205 147ft 0kts
08-Jun-20 17:08 36.935537 -121.788879 205 147ft 0kts
08-Jun-20 17:08 36.935537 -121.788879 205 147ft 0kts
08-Jun-20 17:10 36.935537 -121.788879 205 147ft 0kts
08-Jun-20 17:11 36.935537 -121.788879 205 147ft 0kts
08-Jun-20 17:11 36.935537 -121.788879 205 147ft 0kts
08-Jun-20 17:13 36.935537 -121.788879 205 147ft 0kts
08-Jun-20 17:13 36.935537 -121.788879 205 147ft 0kts
08-Jun-20 17:14 36.935537 -121.788879 205 147ft 0kts
08-Jun-20 17:16 36.935537 -121.788879 205 147ft 0kts
08-Jun-20 17:16 36.935537 -121.788879 205 147ft 0kts
08-Jun-20 17:17 36.935537 -121.788879 205 147ft 0kts
08-Jun-20 17:18 36.935537 -121.788879 205 147ft 0kts
08-Jun-20 17:19 36.935537 -121.788879 205 147ft 0kts
08-Jun-20 17:20 36.935537 -121.788879 205 147ft 0kts
08-Jun-20 17:21 36.935537 -121.788879 205 147ft 0kts
08-Jun-20 17:22 36.935537 -121.788879 205 147ft 0kts
08-Jun-20 17:23 36.935537 -121.788879 205 147ft 0kts
08-Jun-20 17:24 36.935537 -121.788879 205 147ft 0kts
08-Jun-20 17:25 36.935537 -121.788879 205 147ft 0kts
08-Jun-20 17:26 36.935537 -121.788879 205 147ft 0kts
08-Jun-20 17:27 36.935513 -121.788893 205 147ft 2kts
08-Jun-20 17:28 36.937951 -121.787557 32 149ft 18kts
08-Jun-20 17:29 36.938630 -121.787260 347 149ft 0kts
08-Jun-20 17:30 36.935672 -121.790507 214 192ft 69kts
08-Jun-20 17:31 36.920354 -121.807668 225 1106ft 76kts
08-Jun-20 17:32 36.905345 -121.826312 224 1971ft 77kts
08-Jun-20 17:33 36.888987 -121.843143 186 2749ft 79kts
08-Jun-20 17:34 36.867992 -121.837490 162 3545ft 79kts
08-Jun-20 17:35 36.847675 -121.828450 161 4338ft 75kts
08-Jun-20 17:36 36.827144 -121.818918 154 4846ft 100kts
08-Jun-20 17:37 36.807602 -121.791456 129 4908ft 113kts
08-Jun-20 17:38 36.787834 -121.761760 129 4916ft 110kts
08-Jun-20 17:39 36.768211 -121.732238 129 4916ft 110kts
08-Jun-20 17:40 36.748717 -121.702887 129 4916ft 110kts
08-Jun-20 17:41 36.729131 -121.673377 129 4916ft 110kts
08-Jun-20 17:42 36.707683 -121.646065 138 4916ft 110kts
08-Jun-20 17:43 36.683749 -121.622055 141 4916ft 110kts
08-Jun-20 17:44 36.668140 -121.592415 122 4911ft 109kts
08-Jun-20 17:45 36.639030 -121.583940 173 4917ft 111kts
08-Jun-20 17:46 36.608556 -121.578186 162 4936ft 111kts
08-Jun-20 17:47 36.579434 -121.576068 233 4705ft 114kts
08-Jun-20 17:48 36.568442 -121.611772 248 4281ft 110kts
08-Jun-20 17:49 36.565821 -121.648953 277 3822ft 109kts
08-Jun-20 17:50 36.568964 -121.686458 283 3238ft 109kts
08-Jun-20 17:51 36.571540 -121.723728 276 2409ft 107kts
08-Jun-20 17:52 36.574460 -121.760190 278 1621ft 100kts
08-Jun-20 17:53 36.576884 -121.793961 282 809ft 93kts
08-Jun-20 17:54 36.581727 -121.824102 277 498ft 79kts
08-Jun-20 17:55 36.587280 -121.845437 262 191ft 13kts
08-Jun-20 17:56 36.586749 -121.845973 200 195ft 6kts

Navigation Log

Ident Type
Flight plan parsing failed, navigation log unavailable